Terminal Aerodrome Forecast
Issued by NWS

Home | Current Version | Previous Version | Text Only | Print | Product List | Glossary On
Versions: 1 2 3 4 5 6 7 8 9 10 11 12 13 14 15 16 17
000
FTUS43 KLSX 191120
TAFUIN
TAF
KUIN 191120Z 1912/2012 00000KT 3/4SM BR BKN005
      TEMPO 1912/1914 1/4SM FG VV001
     FM191400 00000KT 1SM BR SCT008
     FM191500 00000KT P6SM SCT010
     FM191900 19005KT P6SM SCT110
     FM200200 13006KT P6SM FEW250
     FM200900 17008KT P6SM FEW250=

USA.gov is the U.S. government's official web portal to all federal, state and local government web resources and services.